sensor_id;sensor_type;location;lat;lon;timestamp;pressure;altitude;pressure_sealevel;temperature;humidity
58385;BME280;44185;47.844;8.966;2023-02-12T00:01:25;97996.03;;;-4.04;100.00
58385;BME280;44185;47.844;8.966;2023-02-12T00:03:51;98015.00;;;-3.92;100.00
58385;BME280;44185;47.844;8.966;2023-02-12T00:06:18;98008.97;;;-3.99;100.00
58385;BME280;44185;47.844;8.966;2023-02-12T00:08:43;98003.78;;;-4.10;100.00
58385;BME280;44185;47.844;8.966;2023-02-12T00:11:11;98003.78;;;-4.05;100.00
58385;BME280;44185;47.844;8.966;2023-02-12T00:13:37;98002.94;;;-3.99;100.00
58385;BME280;44185;47.844;8.966;2023-02-12T00:16:07;97998.63;;;-3.99;100.00
58385;BME280;44185;47.844;8.966;2023-02-12T00:18:33;97997.75;;;-4.03;100.00
58385;BME280;44185;47.844;8.966;2023-02-12T00:20:59;98001.22;;;-3.99;100.00
58385;BME280;44185;47.844;8.966;2023-02-12T00:23:26;97990.00;;;-4.01;100.00
58385;BME280;44185;47.844;8.966;2023-02-12T00:25:52;97985.69;;;-4.05;100.00
58385;BME280;44185;47.844;8.966;2023-02-12T00:28:18;97991.72;;;-4.13;100.00
58385;BME280;44185;47.844;8.966;2023-02-12T00:30:43;97995.16;;;-4.10;100.00
58385;BME280;44185;47.844;8.966;2023-02-12T00:33:09;97991.69;;;-4.11;100.00
58385;BME280;44185;47.844;8.966;2023-02-12T00:35:34;97999.47;;;-4.05;100.00
58385;BME280;44185;47.844;8.966;2023-02-12T00:38:00;97998.63;;;-4.07;100.00
58385;BME280;44185;47.844;8.966;2023-02-12T00:40:27;98002.94;;;-4.03;100.00
58385;BME280;44185;47.844;8.966;2023-02-12T00:42:52;98002.06;;;-3.95;100.00
58385;BME280;44185;47.844;8.966;2023-02-12T00:45:18;98010.69;;;-3.92;100.00
58385;BME280;44185;47.844;8.966;2023-02-12T00:47:43;98003.81;;;-3.96;100.00
58385;BME280;44185;47.844;8.966;2023-02-12T00:50:09;98010.69;;;-4.03;100.00
58385;BME280;44185;47.844;8.966;2023-02-12T00:52:35;98012.44;;;-3.98;100.00
58385;BME280;44185;47.844;8.966;2023-02-12T00:55:00;98002.94;;;-3.93;100.00
58385;BME280;44185;47.844;8.966;2023-02-12T00:57:27;98013.28;;;-3.98;100.00
58385;BME280;44185;47.844;8.966;2023-02-12T00:59:52;98016.75;;;-3.96;100.00
58385;BME280;44185;47.844;8.966;2023-02-12T01:02:18;98003.81;;;-4.04;100.00
58385;BME280;44185;47.844;8.966;2023-02-12T01:04:43;97996.03;;;-4.04;100.00
58385;BME280;44185;47.844;8.966;2023-02-12T01:07:09;97994.31;;;-4.06;100.00
58385;BME280;44185;47.844;8.966;2023-02-12T01:09:34;97996.88;;;-4.03;100.00
58385;BME280;44185;47.844;8.966;2023-02-12T01:12:00;97998.63;;;-4.11;100.00
58385;BME280;44185;47.844;8.966;2023-02-12T01:14:27;97994.28;;;-4.08;100.00
58385;BME280;44185;47.844;8.966;2023-02-12T01:16:53;97999.47;;;-4.00;100.00
58385;BME280;44185;47.844;8.966;2023-02-12T01:19:18;98002.06;;;-3.95;100.00
58385;BME280;44185;47.844;8.966;2023-02-12T01:21:44;98002.94;;;-3.96;100.00
58385;BME280;44185;47.844;8.966;2023-02-12T01:24:09;98000.34;;;-3.98;100.00
58385;BME280;44185;47.844;8.966;2023-02-12T01:26:35;98003.81;;;-4.04;100.00
58385;BME280;44185;47.844;8.966;2023-02-12T01:29:03;97992.59;;;-4.04;100.00
58385;BME280;44185;47.844;8.966;2023-02-12T01:31:32;97996.88;;;-4.03;100.00
58385;BME280;44185;47.844;8.966;2023-02-12T01:33:59;97991.75;;;-3.98;100.00
58385;BME280;44185;47.844;8.966;2023-02-12T01:36:26;97996.91;;;-3.97;100.00
58385;BME280;44185;47.844;8.966;2023-02-12T01:38:51;97995.19;;;-4.04;100.00
58385;BME280;44185;47.844;8.966;2023-02-12T01:41:19;97996.91;;;-4.02;100.00
58385;BME280;44185;47.844;8.966;2023-02-12T01:44:04;98001.22;;;-4.02;100.00
58385;BME280;44185;47.844;8.966;2023-02-12T01:46:31;97997.78;;;-4.01;100.00
58385;BME280;44185;47.844;8.966;2023-02-12T01:48:58;97999.50;;;-4.06;100.00
58385;BME280;44185;47.844;8.966;2023-02-12T01:51:24;97995.16;;;-4.07;100.00
58385;BME280;44185;47.844;8.966;2023-02-12T01:53:53;97999.50;;;-4.06;100.00
58385;BME280;44185;47.844;8.966;2023-02-12T01:56:19;97996.91;;;-4.14;100.00
58385;BME280;44185;47.844;8.966;2023-02-12T01:58:46;97993.41;;;-4.16;100.00
58385;BME280;44185;47.844;8.966;2023-02-12T02:01:17;97994.28;;;-4.16;100.00
58385;BME280;44185;47.844;8.966;2023-02-12T02:03:47;97983.06;;;-4.27;100.00
58385;BME280;44185;47.844;8.966;2023-02-12T02:06:16;97982.19;;;-4.31;100.00
58385;BME280;44185;47.844;8.966;2023-02-12T02:08:44;97982.22;;;-4.23;100.00
58385;BME280;44185;47.844;8.966;2023-02-12T02:11:10;97983.06;;;-4.21;100.00
58385;BME280;44185;47.844;8.966;2023-02-12T02:13:36;97987.38;;;-4.25;100.00
58385;BME280;44185;47.844;8.966;2023-02-12T02:16:08;97987.38;;;-4.26;100.00
58385;BME280;44185;47.844;8.966;2023-02-12T02:18:41;97989.09;;;-4.28;100.00
58385;BME280;44185;47.844;8.966;2023-02-12T02:21:32;97978.75;;;-4.27;100.00
58385;BME280;44185;47.844;8.966;2023-02-12T02:27:16;97986.50;;;-4.28;100.00
58385;BME280;44185;47.844;8.966;2023-02-12T02:32:34;97978.75;;;-4.33;100.00
58385;BME280;44185;47.844;8.966;2023-02-12T02:35:07;97971.84;;;-4.36;100.00
58385;BME280;44185;47.844;8.966;2023-02-12T02:37:38;97970.97;;;-4.38;100.00
58385;BME280;44185;47.844;8.966;2023-02-12T02:40:10;97967.53;;;-4.37;100.00
58385;BME280;44185;47.844;8.966;2023-02-12T02:42:40;97970.97;;;-4.35;100.00
58385;BME280;44185;47.844;8.966;2023-02-12T02:45:12;97970.97;;;-4.44;100.00
58385;BME280;44185;47.844;8.966;2023-02-12T02:47:44;97966.66;;;-4.37;100.00
58385;BME280;44185;47.844;8.966;2023-02-12T02:50:14;97971.84;;;-4.31;100.00
58385;BME280;44185;47.844;8.966;2023-02-12T02:52:45;97971.84;;;-4.31;100.00
58385;BME280;44185;47.844;8.966;2023-02-12T02:55:16;97971.00;;;-4.28;100.00
58385;BME280;44185;47.844;8.966;2023-02-12T02:57:46;97966.69;;;-4.25;100.00
58385;BME280;44185;47.844;8.966;2023-02-12T03:00:16;97964.97;;;-4.24;100.00
58385;BME280;44185;47.844;8.966;2023-02-12T03:02:49;97970.16;;;-4.26;100.00
58385;BME280;44185;47.844;8.966;2023-02-12T03:05:20;97971.88;;;-4.21;100.00
58385;BME280;44185;47.844;8.966;2023-02-12T03:07:50;97977.00;;;-4.32;100.00
58385;BME280;44185;47.844;8.966;2023-02-12T03:10:18;97974.44;;;-4.34;100.00
58385;BME280;44185;47.844;8.966;2023-02-12T03:12:50;97962.38;;;-4.37;100.00
58385;BME280;44185;47.844;8.966;2023-02-12T03:15:19;97970.97;;;-4.49;100.00
58385;BME280;44185;47.844;8.966;2023-02-12T03:17:48;97968.38;;;-4.42;100.00
58385;BME280;44185;47.844;8.966;2023-02-12T03:20:17;97964.91;;;-4.43;100.00
58385;BME280;44185;47.844;8.966;2023-02-12T03:22:47;97958.03;;;-4.47;100.00
58385;BME280;44185;47.844;8.966;2023-02-12T03:25:17;97963.19;;;-4.55;100.00
58385;BME280;44185;47.844;8.966;2023-02-12T03:27:49;97965.75;;;-4.58;100.00
58385;BME280;44185;47.844;8.966;2023-02-12T03:30:19;97965.75;;;-4.61;100.00
58385;BME280;44185;47.844;8.966;2023-02-12T03:32:49;97960.56;;;-4.67;100.00
58385;BME280;44185;47.844;8.966;2023-02-12T03:35:24;97964.88;;;-4.60;100.00
58385;BME280;44185;47.844;8.966;2023-02-12T03:37:56;97966.63;;;-4.59;100.00
58385;BME280;44185;47.844;8.966;2023-02-12T03:40:31;97970.94;;;-4.55;100.00
58385;BME280;44185;47.844;8.966;2023-02-12T03:43:02;97969.22;;;-4.53;100.00
58385;BME280;44185;47.844;8.966;2023-02-12T03:45:38;97974.38;;;-4.58;100.00
58385;BME280;44185;47.844;8.966;2023-02-12T03:48:09;97964.91;;;-4.52;100.00
58385;BME280;44185;47.844;8.966;2023-02-12T03:50:41;97972.63;;;-4.62;100.00
58385;BME280;44185;47.844;8.966;2023-02-12T03:53:09;97976.91;;;-4.70;100.00
58385;BME280;44185;47.844;8.966;2023-02-12T03:55:39;97984.66;;;-4.67;100.00
58385;BME280;44185;47.844;8.966;2023-02-12T03:58:08;97982.97;;;-4.59;100.00
58385;BME280;44185;47.844;8.966;2023-02-12T04:00:36;97985.59;;;-4.54;100.00
58385;BME280;44185;47.844;8.966;2023-02-12T04:03:03;97989.88;;;-4.53;100.00
58385;BME280;44185;47.844;8.966;2023-02-12T04:05:30;97995.06;;;-4.51;100.00
58385;BME280;44185;47.844;8.966;2023-02-12T04:07:57;97989.03;;;-4.55;100.00
58385;BME280;44185;47.844;8.966;2023-02-12T04:10:30;97990.75;;;-4.54;100.00
58385;BME280;44185;47.844;8.966;2023-02-12T04:13:07;97995.94;;;-4.46;100.00
58385;BME280;44185;47.844;8.966;2023-02-12T04:15:57;97992.50;;;-4.45;100.00
58385;BME280;44185;47.844;8.966;2023-02-12T04:18:33;97991.66;;;-4.39;100.00
58385;BME280;44185;47.844;8.966;2023-02-12T04:21:11;97989.06;;;-4.44;100.00
58385;BME280;44185;47.844;8.966;2023-02-12T04:23:47;97999.38;;;-4.55;100.00
58385;BME280;44185;47.844;8.966;2023-02-12T04:26:23;97999.34;;;-4.60;100.00
58385;BME280;44185;47.844;8.966;2023-02-12T04:28:58;98004.50;;;-4.61;100.00
58385;BME280;44185;47.844;8.966;2023-02-12T04:31:32;98003.63;;;-4.63;100.00
58385;BME280;44185;47.844;8.966;2023-02-12T04:34:07;98006.25;;;-4.57;100.00
58385;BME280;44185;47.844;8.966;2023-02-12T04:36:39;98009.66;;;-4.66;100.00
58385;BME280;44185;47.844;8.966;2023-02-12T04:39:08;98007.94;;;-4.64;100.00
58385;BME280;44185;47.844;8.966;2023-02-12T04:41:36;97997.59;;;-4.64;100.00
58385;BME280;44185;47.844;8.966;2023-02-12T04:44:16;98007.06;;;-4.69;100.00
58385;BME280;44185;47.844;8.966;2023-02-12T04:46:42;98001.06;;;-4.65;100.00
58385;BME280;44185;47.844;8.966;2023-02-12T04:49:13;98004.50;;;-4.63;100.00
58385;BME280;44185;47.844;8.966;2023-02-12T04:51:40;97998.47;;;-4.63;100.00
58385;BME280;44185;47.844;8.966;2023-02-12T04:54:06;97995.06;;;-4.59;100.00
58385;BME280;44185;47.844;8.966;2023-02-12T04:56:31;97989.81;;;-4.67;100.00
58385;BME280;44185;47.844;8.966;2023-02-12T04:58:57;97995.91;;;-4.55;100.00
58385;BME280;44185;47.844;8.966;2023-02-12T05:01:22;98001.94;;;-4.58;100.00
58385;BME280;44185;47.844;8.966;2023-02-12T05:03:48;97989.88;;;-4.56;100.00
58385;BME280;44185;47.844;8.966;2023-02-12T05:06:13;97998.47;;;-4.59;100.00
58385;BME280;44185;47.844;8.966;2023-02-12T05:08:40;97994.97;;;-4.75;100.00
58385;BME280;44185;47.844;8.966;2023-02-12T05:11:07;97994.13;;;-4.74;100.00
58385;BME280;44185;47.844;8.966;2023-02-12T05:13:33;97999.31;;;-4.64;100.00
58385;BME280;44185;47.844;8.966;2023-02-12T05:15:58;97988.97;;;-4.69;100.00
58385;BME280;44185;47.844;8.966;2023-02-12T05:18:24;97988.09;;;-4.71;100.00
58385;BME280;44185;47.844;8.966;2023-02-12T05:20:54;97998.44;;;-4.68;100.00
58385;BME280;44185;47.844;8.966;2023-02-12T05:23:19;97990.69;;;-4.68;100.00
58385;BME280;44185;47.844;8.966;2023-02-12T05:25:46;97986.38;;;-4.72;100.00
58385;BME280;44185;47.844;8.966;2023-02-12T05:28:12;98002.75;;;-4.64;100.00
58385;BME280;44185;47.844;8.966;2023-02-12T05:30:37;97998.47;;;-4.62;100.00
58385;BME280;44185;47.844;8.966;2023-02-12T05:33:02;98001.00;;;-4.70;100.00
58385;BME280;44185;47.844;8.966;2023-02-12T05:35:28;97990.66;;;-4.77;100.00
58385;BME280;44185;47.844;8.966;2023-02-12T05:37:53;97994.97;;;-4.76;100.00
58385;BME280;44185;47.844;8.966;2023-02-12T05:40:19;97992.41;;;-4.73;100.00
58385;BME280;44185;47.844;8.966;2023-02-12T05:42:46;97990.69;;;-4.71;100.00
58385;BME280;44185;47.844;8.966;2023-02-12T05:45:11;97989.72;;;-4.91;100.00
58385;BME280;44185;47.844;8.966;2023-02-12T05:47:36;97988.06;;;-4.84;100.00
58385;BME280;44185;47.844;8.966;2023-02-12T05:50:02;97982.00;;;-4.87;100.00
58385;BME280;44185;47.844;8.966;2023-02-12T05:52:27;97986.34;;;-4.80;100.00
58385;BME280;44185;47.844;8.966;2023-02-12T05:54:53;97983.75;;;-4.86;100.00
58385;BME280;44185;47.844;8.966;2023-02-12T05:57:18;97989.75;;;-4.83;100.00
58385;BME280;44185;47.844;8.966;2023-02-12T05:59:45;97981.22;;;-4.75;100.00
58385;BME280;44185;47.844;8.966;2023-02-12T06:02:11;97978.66;;;-4.67;100.00
58385;BME280;44185;47.844;8.966;2023-02-12T06:04:36;97982.06;;;-4.76;100.00
58385;BME280;44185;47.844;8.966;2023-02-12T06:07:01;97981.19;;;-4.78;100.00
58385;BME280;44185;47.844;8.966;2023-02-12T06:09:27;97971.75;;;-4.73;100.00
58385;BME280;44185;47.844;8.966;2023-02-12T06:11:53;97980.34;;;-4.76;100.00
58385;BME280;44185;47.844;8.966;2023-02-12T06:14:19;97984.66;;;-4.69;100.00
58385;BME280;44185;47.844;8.966;2023-02-12T06:16:47;97984.69;;;-4.61;100.00
58385;BME280;44185;47.844;8.966;2023-02-12T06:19:13;97983.84;;;-4.53;100.00
58385;BME280;44185;47.844;8.966;2023-02-12T06:21:39;97990.75;;;-4.51;100.00
58385;BME280;44185;47.844;8.966;2023-02-12T06:24:04;97993.31;;;-4.59;100.00
58385;BME280;44185;47.844;8.966;2023-02-12T06:26:30;97990.69;;;-4.68;100.00
58385;BME280;44185;47.844;8.966;2023-02-12T06:28:55;97988.13;;;-4.68;100.00
58385;BME280;44185;47.844;8.966;2023-02-12T06:31:23;97990.69;;;-4.71;100.00
58385;BME280;44185;47.844;8.966;2023-02-12T06:33:50;97994.16;;;-4.66;100.00
58385;BME280;44185;47.844;8.966;2023-02-12T06:36:16;97993.31;;;-4.65;100.00
58385;BME280;44185;47.844;8.966;2023-02-12T06:38:42;97985.56;;;-4.57;100.00
58385;BME280;44185;47.844;8.966;2023-02-12T06:41:08;97988.19;;;-4.54;100.00
58385;BME280;44185;47.844;8.966;2023-02-12T06:43:33;97995.91;;;-4.51;100.00
58385;BME280;44185;47.844;8.966;2023-02-12T06:45:59;98003.69;;;-4.54;100.00
58385;BME280;44185;47.844;8.966;2023-02-12T06:48:25;97995.91;;;-4.52;100.00
58385;BME280;44185;47.844;8.966;2023-02-12T06:50:52;97990.75;;;-4.52;100.00
58385;BME280;44185;47.844;8.966;2023-02-12T06:53:17;97992.47;;;-4.50;100.00
58385;BME280;44185;47.844;8.966;2023-02-12T06:55:43;97995.06;;;-4.45;100.00
58385;BME280;44185;47.844;8.966;2023-02-12T06:58:08;98009.75;;;-4.38;100.00
58385;BME280;44185;47.844;8.966;2023-02-12T07:00:34;98007.09;;;-4.58;100.00
58385;BME280;44185;47.844;8.966;2023-02-12T07:02:59;98007.13;;;-4.55;100.00
58385;BME280;44185;47.844;8.966;2023-02-12T07:05:24;98001.97;;;-4.52;100.00
58385;BME280;44185;47.844;8.966;2023-02-12T07:07:51;98001.97;;;-4.47;100.00
58385;BME280;44185;47.844;8.966;2023-02-12T07:10:17;98003.72;;;-4.41;100.00
58385;BME280;44185;47.844;8.966;2023-02-12T07:12:43;98003.75;;;-4.30;100.00
58385;BME280;44185;47.844;8.966;2023-02-12T07:15:09;98006.38;;;-4.11;100.00
58385;BME280;44185;47.844;8.966;2023-02-12T07:17:34;98004.63;;;-4.20;100.00
58385;BME280;44185;47.844;8.966;2023-02-12T07:20:00;98005.47;;;-4.25;100.00
58385;BME280;44185;47.844;8.966;2023-02-12T07:22:25;98005.50;;;-4.10;100.00
58385;BME280;44185;47.844;8.966;2023-02-12T07:24:52;98006.38;;;-3.97;100.00
58385;BME280;44185;47.844;8.966;2023-02-12T07:27:18;98008.97;;;-3.89;100.00
58385;BME280;44185;47.844;8.966;2023-02-12T07:29:43;98002.09;;;-3.86;100.00
58385;BME280;44185;47.844;8.966;2023-02-12T07:32:08;98004.69;;;-3.64;100.00
58385;BME280;44185;47.844;8.966;2023-02-12T07:34:34;98008.91;;;-2.98;100.00
58385;BME280;44185;47.844;8.966;2023-02-12T07:36:59;98005.97;;;-2.17;100.00
58385;BME280;44185;47.844;8.966;2023-02-12T07:39:25;98004.19;;;-2.02;100.00
58385;BME280;44185;47.844;8.966;2023-02-12T07:41:52;98003.16;;;-1.79;100.00
58385;BME280;44185;47.844;8.966;2023-02-12T07:44:17;98016.03;;;-1.65;100.00
58385;BME280;44185;47.844;8.966;2023-02-12T07:46:44;98005.03;;;-0.99;100.00
58385;BME280;44185;47.844;8.966;2023-02-12T07:49:12;98008.03;;;-0.56;100.00
58385;BME280;44185;47.844;8.966;2023-02-12T07:51:37;98002.75;;;-0.50;100.00
58385;BME280;44185;47.844;8.966;2023-02-12T07:54:03;98004.75;;;-0.04;100.00
58385;BME280;44185;47.844;8.966;2023-02-12T07:56:31;97994.69;;;0.29;100.00
58385;BME280;44185;47.844;8.966;2023-02-12T07:59:00;97998.06;;;0.36;100.00
58385;BME280;44185;47.844;8.966;2023-02-12T08:01:27;97991.66;;;0.56;100.00
58385;BME280;44185;47.844;8.966;2023-02-12T08:03:54;97986.25;;;0.67;100.00
58385;BME280;44185;47.844;8.966;2023-02-12T08:06:23;97990.34;;;0.84;100.00
58385;BME280;44185;47.844;8.966;2023-02-12T08:08:50;97993.72;;;0.89;100.00
58385;BME280;44185;47.844;8.966;2023-02-12T08:11:16;97992.41;;;1.12;100.00
58385;BME280;44185;47.844;8.966;2023-02-12T08:13:41;97993.22;;;1.16;100.00
58385;BME280;44185;47.844;8.966;2023-02-12T08:16:11;97998.19;;;1.28;100.00
58385;BME280;44185;47.844;8.966;2023-02-12T08:18:37;97997.09;;;1.40;100.00
58385;BME280;44185;47.844;8.966;2023-02-12T08:21:04;97983.78;;;1.53;100.00
58385;BME280;44185;47.844;8.966;2023-02-12T08:23:30;97991.50;;;1.59;100.00
58385;BME280;44185;47.844;8.966;2023-02-12T08:26:04;97993.97;;;1.65;100.00
58385;BME280;44185;47.844;8.966;2023-02-12T08:28:29;97992.97;;;1.71;100.00
58385;BME280;44185;47.844;8.966;2023-02-12T08:30:59;97985.84;;;1.78;100.00
58385;BME280;44185;47.844;8.966;2023-02-12T08:33:26;97997.03;;;1.85;100.00
58385;BME280;44185;47.844;8.966;2023-02-12T08:35:59;97998.66;;;1.91;100.00
58385;BME280;44185;47.844;8.966;2023-02-12T08:38:25;97998.59;;;1.94;100.00
58385;BME280;44185;47.844;8.966;2023-02-12T08:40:50;97987.13;;;1.99;100.00
58385;BME280;44185;47.844;8.966;2023-02-12T08:43:16;98000.13;;;2.03;100.00
58385;BME280;44185;47.844;8.966;2023-02-12T08:45:41;97994.78;;;2.09;100.00
58385;BME280;44185;47.844;8.966;2023-02-12T08:48:06;97993.78;;;2.15;100.00
58385;BME280;44185;47.844;8.966;2023-02-12T08:50:34;97998.25;;;2.09;100.00
58385;BME280;44185;47.844;8.966;2023-02-12T08:52:59;98005.16;;;2.12;100.00
58385;BME280;44185;47.844;8.966;2023-02-12T08:55:25;98002.50;;;2.14;100.00
58385;BME280;44185;47.844;8.966;2023-02-12T08:57:50;98004.22;;;2.15;100.00
58385;BME280;44185;47.844;8.966;2023-02-12T09:00:16;97999.75;;;2.20;100.00
58385;BME280;44185;47.844;8.966;2023-02-12T09:02:42;98010.91;;;2.27;100.00
58385;BME280;44185;47.844;8.966;2023-02-12T09:05:08;98010.09;;;2.23;100.00
58385;BME280;44185;47.844;8.966;2023-02-12T09:07:35;98006.50;;;2.29;100.00
58385;BME280;44185;47.844;8.966;2023-02-12T09:10:00;98008.41;;;2.22;100.00
58385;BME280;44185;47.844;8.966;2023-02-12T09:12:26;98015.19;;;2.29;100.00
58385;BME280;44185;47.844;8.966;2023-02-12T09:14:51;98007.16;;;2.37;100.00
58385;BME280;44185;47.844;8.966;2023-02-12T09:17:16;98012.38;;;2.39;100.00
58385;BME280;44185;47.844;8.966;2023-02-12T09:19:42;98003.59;;;2.41;100.00
58385;BME280;44185;47.844;8.966;2023-02-12T09:22:08;98003.59;;;2.41;100.00
58385;BME280;44185;47.844;8.966;2023-02-12T09:24:35;97998.28;;;2.44;100.00
58385;BME280;44185;47.844;8.966;2023-02-12T09:27:01;97992.78;;;2.55;100.00
58385;BME280;44185;47.844;8.966;2023-02-12T09:29:26;97987.44;;;2.60;100.00
58385;BME280;44185;47.844;8.966;2023-02-12T09:31:51;97986.47;;;2.64;100.00
58385;BME280;44185;47.844;8.966;2023-02-12T09:34:17;97984.47;;;2.76;100.00
58385;BME280;44185;47.844;8.966;2023-02-12T09:36:42;97979.84;;;2.86;100.00
58385;BME280;44185;47.844;8.966;2023-02-12T09:39:08;97979.66;;;2.92;100.00
58385;BME280;44185;47.844;8.966;2023-02-12T09:41:58;97978.41;;;3.07;100.00
58385;BME280;44185;47.844;8.966;2023-02-12T09:44:29;97973.84;;;3.14;100.00
58385;BME280;44185;47.844;8.966;2023-02-12T09:46:58;97971.81;;;3.24;100.00
58385;BME280;44185;47.844;8.966;2023-02-12T09:49:40;97977.84;;;3.28;100.00
58385;BME280;44185;47.844;8.966;2023-02-12T09:52:12;97972.69;;;3.25;100.00
58385;BME280;44185;47.844;8.966;2023-02-12T09:54:39;97979.72;;;3.22;100.00
58385;BME280;44185;47.844;8.966;2023-02-12T09:57:14;97969.25;;;3.22;100.00
58385;BME280;44185;47.844;8.966;2023-02-12T09:59:44;97972.69;;;3.25;100.00
58385;BME280;44185;47.844;8.966;2023-02-12T10:02:13;97972.56;;;3.29;100.00
58385;BME280;44185;47.844;8.966;2023-02-12T10:04:40;97974.94;;;3.39;100.00
58385;BME280;44185;47.844;8.966;2023-02-12T10:07:13;97980.06;;;3.42;100.00
58385;BME280;44185;47.844;8.966;2023-02-12T10:09:57;97980.31;;;3.34;100.00
58385;BME280;44185;47.844;8.966;2023-02-12T10:12:32;97981.84;;;3.40;100.00
58385;BME280;44185;47.844;8.966;2023-02-12T10:15:16;97970.06;;;3.26;100.00
58385;BME280;44185;47.844;8.966;2023-02-12T10:17:49;97994.63;;;3.20;100.00
58385;BME280;44185;47.844;8.966;2023-02-12T10:20:43;97976.94;;;3.29;100.00
58385;BME280;44185;47.844;8.966;2023-02-12T10:23:23;97979.47;;;3.32;100.00
58385;BME280;44185;47.844;8.966;2023-02-12T10:25:54;97972.34;;;3.37;100.00
58385;BME280;44185;47.844;8.966;2023-02-12T10:28:25;97974.47;;;3.54;100.00
58385;BME280;44185;47.844;8.966;2023-02-12T10:30:54;97976.88;;;3.62;100.00
58385;BME280;44185;47.844;8.966;2023-02-12T10:33:25;97973.75;;;3.49;100.00
58385;BME280;44185;47.844;8.966;2023-02-12T10:35:54;97977.81;;;3.60;100.00
58385;BME280;44185;47.844;8.966;2023-02-12T10:38:25;97974.31;;;3.61;100.00
58385;BME280;44185;47.844;8.966;2023-02-12T10:40:51;97971.69;;;3.61;100.00
58385;BME280;44185;47.844;8.966;2023-02-12T10:43:17;97969.78;;;3.66;100.00
58385;BME280;44185;47.844;8.966;2023-02-12T10:45:44;97964.44;;;3.69;100.00
58385;BME280;44185;47.844;8.966;2023-02-12T10:48:12;97977.22;;;3.80;100.00
58385;BME280;44185;47.844;8.966;2023-02-12T10:50:49;97960.50;;;3.84;100.00
58385;BME280;44185;47.844;8.966;2023-02-12T10:53:21;97960.22;;;3.94;100.00
58385;BME280;44185;47.844;8.966;2023-02-12T10:55:47;97966.25;;;3.96;100.00
58385;BME280;44185;47.844;8.966;2023-02-12T10:58:19;97967.13;;;3.96;100.00
58385;BME280;44185;47.844;8.966;2023-02-12T11:00:46;97961.63;;;4.04;100.00
58385;BME280;44185;47.844;8.966;2023-02-12T11:03:20;97962.41;;;4.08;100.00
58385;BME280;44185;47.844;8.966;2023-02-12T11:05:47;97960.59;;;4.10;100.00
58385;BME280;44185;47.844;8.966;2023-02-12T11:08:28;97961.31;;;4.15;100.00
58385;BME280;44185;47.844;8.966;2023-02-12T11:10:54;97950.72;;;4.18;100.00
58385;BME280;44185;47.844;8.966;2023-02-12T11:13:22;97950.31;;;4.04;100.00
58385;BME280;44185;47.844;8.966;2023-02-12T11:15:50;97950.91;;;4.12;100.00
58385;BME280;44185;47.844;8.966;2023-02-12T11:18:21;97944.53;;;4.21;100.00
58385;BME280;44185;47.844;8.966;2023-02-12T11:20:50;97940.44;;;4.39;100.00
58385;BME280;44185;47.844;8.966;2023-02-12T11:23:25;97941.47;;;4.35;100.00
58385;BME280;44185;47.844;8.966;2023-02-12T11:25:55;97940.34;;;4.42;100.00
58385;BME280;44185;47.844;8.966;2023-02-12T11:28:21;97939.56;;;4.40;100.00
58385;BME280;44185;47.844;8.966;2023-02-12T11:30:54;97927.94;;;4.48;100.00
58385;BME280;44185;47.844;8.966;2023-02-12T11:33:29;97936.88;;;4.42;100.00
58385;BME280;44185;47.844;8.966;2023-02-12T11:35:57;97928.50;;;4.30;100.00
58385;BME280;44185;47.844;8.966;2023-02-12T11:38:29;97922.63;;;4.49;100.00
58385;BME280;44185;47.844;8.966;2023-02-12T11:40:58;97929.50;;;4.53;100.00
58385;BME280;44185;47.844;8.966;2023-02-12T11:43:26;97922.28;;;4.60;100.00
58385;BME280;44185;47.844;8.966;2023-02-12T11:45:54;97920.84;;;4.77;100.00
58385;BME280;44185;47.844;8.966;2023-02-12T11:48:22;97923.41;;;4.78;100.00
58385;BME280;44185;47.844;8.966;2023-02-12T11:50:51;97918.56;;;4.92;100.00
58385;BME280;44185;47.844;8.966;2023-02-12T11:53:21;97909.03;;;4.89;100.00
58385;BME280;44185;47.844;8.966;2023-02-12T11:55:56;97912.84;;;5.06;100.00
58385;BME280;44185;47.844;8.966;2023-02-12T11:58:23;97915.78;;;5.44;100.00
58385;BME280;44185;47.844;8.966;2023-02-12T12:00:55;97905.72;;;5.56;100.00
58385;BME280;44185;47.844;8.966;2023-02-12T12:03:26;97902.81;;;5.64;100.00
58385;BME280;44185;47.844;8.966;2023-02-12T12:05:56;97907.94;;;5.89;100.00
58385;BME280;44185;47.844;8.966;2023-02-12T12:08:30;97894.56;;;5.96;100.00
58385;BME280;44185;47.844;8.966;2023-02-12T12:11:02;97893.09;;;6.11;100.00
58385;BME280;44185;47.844;8.966;2023-02-12T12:13:34;97892.16;;;6.34;100.00
58385;BME280;44185;47.844;8.966;2023-02-12T12:16:08;97906.16;;;6.35;100.00
58385;BME280;44185;47.844;8.966;2023-02-12T12:18:42;97903.66;;;6.32;100.00
58385;BME280;44185;47.844;8.966;2023-02-12T12:21:14;97898.31;;;6.13;100.00
58385;BME280;44185;47.844;8.966;2023-02-12T12:23:43;97889.69;;;6.09;100.00
58385;BME280;44185;47.844;8.966;2023-02-12T12:26:14;97897.03;;;6.23;100.00
58385;BME280;44185;47.844;8.966;2023-02-12T12:28:46;97889.78;;;6.28;100.00
58385;BME280;44185;47.844;8.966;2023-02-12T12:31:15;97893.81;;;6.58;100.00
58385;BME280;44185;47.844;8.966;2023-02-12T12:33:43;97889.06;;;6.66;99.69
58385;BME280;44185;47.844;8.966;2023-02-12T12:36:34;97889.28;;;6.41;99.38
58385;BME280;44185;47.844;8.966;2023-02-12T12:39:05;97896.78;;;6.71;100.00
58385;BME280;44185;47.844;8.966;2023-02-12T12:41:41;97887.09;;;6.93;97.15
58385;BME280;44185;47.844;8.966;2023-02-12T12:44:21;97880.41;;;7.05;96.28
58385;BME280;44185;47.844;8.966;2023-02-12T12:47:01;97880.97;;;6.92;96.83
58385;BME280;44185;47.844;8.966;2023-02-12T12:49:39;97875.69;;;7.11;96.31
58385;BME280;44185;47.844;8.966;2023-02-12T12:52:19;97880.28;;;7.08;96.29
58385;BME280;44185;47.844;8.966;2023-02-12T12:54:58;97874.25;;;6.85;96.47
58385;BME280;44185;47.844;8.966;2023-02-12T12:57:32;97865.34;;;6.68;98.00
58385;BME280;44185;47.844;8.966;2023-02-12T13:00:13;97864.47;;;7.08;97.81
58385;BME280;44185;47.844;8.966;2023-02-12T13:03:11;97863.47;;;7.10;95.24
58385;BME280;44185;47.844;8.966;2023-02-12T13:06:07;97864.16;;;7.14;95.61
58385;BME280;44185;47.844;8.966;2023-02-12T13:09:01;97850.38;;;7.48;94.49
58385;BME280;44185;47.844;8.966;2023-02-12T13:11:41;97856.56;;;7.66;92.82